Samraa_alkhaleej — 5AXG — position and weather

sailwx.info

Track history (hours):
 
Tides and Currents Weather Stations Pressure Air Temp Water Temp Dewpoint Dewpoint Depression Visibility Wind Speed Wind Dir Waves Ship Positions

Samraa_alkhaleej

Last reported at 2018-Jun-22 21:32 UTC. Time now 2018-Jun-23 18:02 UTC.
Position N 42°01' E 029°56'.

Length 248 m; draft 8 m.

Type: Tanker. MMSI: 642122021.

Date/timePositionNaut miles runAvg speedWind from/ knotsBaromVisibWave heightAir tempDewpointWater temp
2018-Jun-22 21:32N 42°01' E 029°56'113.2
2018-Jun-22 21:29N 42°00' E 029°55'613.0
2018-Jun-22 21:00N 41°55' E 029°51'612.8
2018-Jun-22 20:30N 41°49' E 029°46'812.0
2018-Jun-22 19:52N 41°43' E 029°41'513.7
2018-Jun-22 19:30N 41°39' E 029°37'713.7
2018-Jun-22 19:00N 41°33' E 029°32'813.0
2018-Jun-22 18:23N 41°27' E 029°25'1 2.3
2018-Jun-22 17:56N 41°26' E 029°24'9 6.2
2018-Jun-22 16:31N 41°19' E 029°17'3110.2
2018-Jun-22 13:29N 40°51' E 029°00'8 1.0
2018-Jun-22 05:05N 40°48' E 028°50'312.5
2018-Jun-22 04:49N 40°46' E 028°46'5 1.1
2018-Jun-22 00:29N 40°46' E 028°53'0 0.9
2018-Jun-21 23:59N 40°47' E 028°53'0 1.0
2018-Jun-21 23:30N 40°47' E 028°54'0 1.0
2018-Jun-21 23:00N 40°48' E 028°54'0 0.8
2018-Jun-21 22:30N 40°48' E 028°54'  
2018-Jun-18 13:12N 37°45' E 024°16'1011.9
2018-Jun-18 12:23N 37°36' E 024°10'  
2018-Jun-15 16:15N 44°32' E 013°38'311.9
2018-Jun-15 16:00N 44°35' E 013°35'611.9
2018-Jun-15 15:30N 44°40' E 013°30'612.7
2018-Jun-15 15:00N 44°45' E 013°26'612.6
2018-Jun-15 14:30N 44°50' E 013°21'612.4
2018-Jun-15 14:00N 44°56' E 013°16'612.1
2018-Jun-15 13:30N 45°01' E 013°11'510.9
2018-Jun-15 13:00N 45°05' E 013°07'611.0
2018-Jun-15 12:30N 45°10' E 013°04'713.7
2018-Jun-15 12:00N 45°17' E 013°01'712.8
2018-Jun-15 11:29N 45°23' E 013°03'713.9
2018-Jun-15 11:00N 45°28' E 013°09'713.6
2018-Jun-15 10:31N 45°33' E 013°17'713.3
2018-Jun-15 10:00N 45°36' E 013°25'713.1
2018-Jun-15 09:31N 45°38' E 013°34'612.5
2018-Jun-15 09:00N 45°37' E 013°43'3 5.4
2018-Jun-15 08:28N 45°37' E 013°47'0 0.0
2018-Jun-15 07:37N 45°37' E 013°47'0 0.0
2018-Jun-15 07:25N 45°37' E 013°47'0 0.0
2018-Jun-15 06:49N 45°37' E 013°47'0 0.0
2018-Jun-15 06:25N 45°37' E 013°47'0 0.0
2018-Jun-15 05:55N 45°37' E 013°47'0 0.0
2018-Jun-15 05:07N 45°37' E 013°47'0 0.0
2018-Jun-15 04:49N 45°37' E 013°47'0 0.0
2018-Jun-15 04:25N 45°37' E 013°47'0 0.0
2018-Jun-15 03:49N 45°37' E 013°47'0 0.0
2018-Jun-15 03:25N 45°37' E 013°47'0 0.0
2018-Jun-15 02:40N 45°37' E 013°47'0 0.0
2018-Jun-15 02:25N 45°37' E 013°47'0 0.0
2018-Jun-15 01:49N 45°37' E 013°47'0 0.0
2018-Jun-15 01:19N 45°37' E 013°47'0 0.0
2018-Jun-15 00:58N 45°37' E 013°47'0 0.0
2018-Jun-15 00:25N 45°37' E 013°47'0 0.0
2018-Jun-14 23:55N 45°37' E 013°47'0 0.0
2018-Jun-14 23:25N 45°37' E 013°47'0 0.0
2018-Jun-14 22:43N 45°37' E 013°47'0 0.0
2018-Jun-14 22:19N 45°37' E 013°47'0 0.0
2018-Jun-14 21:55N 45°37' E 013°47'0 0.0
2018-Jun-14 21:25N 45°37' E 013°47'0 0.0
2018-Jun-14 20:10N 45°37' E 013°47'0 0.0
2018-Jun-14 19:58N 45°37' E 013°47'0 0.0
2018-Jun-14 19:04N 45°37' E 013°47'0 0.0
2018-Jun-14 18:52N 45°37' E 013°47'0 0.0
2018-Jun-14 18:22N 45°37' E 013°47'0 0.0
2018-Jun-14 17:58N 45°37' E 013°47'0 0.0
2018-Jun-14 17:28N 45°37' E 013°47'0 0.0
2018-Jun-14 16:49N 45°37' E 013°47'0 0.0
2018-Jun-14 16:19N 45°37' E 013°47'0 0.0
2018-Jun-14 15:58N 45°37' E 013°47'0 0.0
2018-Jun-14 15:28N 45°37' E 013°47'0 0.0
2018-Jun-14 14:46N 45°37' E 013°47'0 0.0
2018-Jun-14 14:25N 45°37' E 013°47'0 0.0
2018-Jun-14 13:49N 45°37' E 013°47'0 0.0
2018-Jun-14 13:19N 45°37' E 013°47'0 0.0
2018-Jun-14 12:55N 45°37' E 013°47'0 0.0
2018-Jun-14 12:25N 45°37' E 013°47'0 0.0
2018-Jun-14 11:55N 45°37' E 013°47'0 0.0
2018-Jun-14 11:28N 45°37' E 013°47'0 0.0
2018-Jun-14 10:43N 45°37' E 013°47'0 0.0
2018-Jun-14 10:28N 45°37' E 013°47'0 0.0
2018-Jun-14 09:55N 45°37' E 013°47'0 0.0
2018-Jun-14 09:25N 45°37' E 013°47'0 0.0
2018-Jun-14 08:55N 45°37' E 013°47'0 0.0
2018-Jun-14 08:13N 45°37' E 013°47'0 0.0
2018-Jun-14 07:55N 45°37' E 013°47'0 0.0
2018-Jun-14 07:25N 45°37' E 013°47'0 0.0
2018-Jun-14 06:55N 45°37' E 013°47'0 0.0
2018-Jun-14 06:25N 45°37' E 013°47'0 0.0
2018-Jun-14 05:55N 45°37' E 013°47'0 0.0
2018-Jun-14 05:25N 45°37' E 013°47'0 0.0
2018-Jun-14 04:55N 45°37' E 013°47'0 0.0
2018-Jun-14 04:25N 45°37' E 013°47'0 0.0
2018-Jun-14 03:58N 45°37' E 013°47'0 0.0
2018-Jun-14 03:31N 45°37' E 013°47'0 0.0
2018-Jun-14 03:01N 45°37' E 013°47'0 0.0
2018-Jun-14 02:30N 45°37' E 013°47'0 0.0
2018-Jun-14 02:00N 45°37' E 013°47'0 0.0
2018-Jun-14 01:27N 45°37' E 013°47'0 0.0
2018-Jun-14 01:00N 45°37' E 013°47'0 0.0
2018-Jun-14 00:30N 45°37' E 013°47'0 0.0
2018-Jun-14 00:00N 45°37' E 013°47'0 0.0
2018-Jun-13 23:30N 45°37' E 013°47'0 0.0
2018-Jun-13 23:00N 45°37' E 013°47'0 0.0
2018-Jun-13 22:30N 45°37' E 013°47'0 0.0
2018-Jun-13 22:00N 45°37' E 013°47'0 0.0
2018-Jun-13 21:30N 45°37' E 013°47'0 0.0
2018-Jun-13 20:57N 45°37' E 013°47'0 0.0
2018-Jun-13 20:30N 45°37' E 013°47'0 0.0
2018-Jun-13 20:00N 45°37' E 013°47'0 0.0
2018-Jun-13 19:30N 45°37' E 013°47'0 0.0
2018-Jun-13 18:39N 45°37' E 013°47'0 0.0
2018-Jun-13 18:30N 45°37' E 013°47'0 0.0
2018-Jun-13 18:00N 45°37' E 013°47'0 0.0
2018-Jun-13 17:30N 45°37' E 013°47'0 0.0
2018-Jun-13 16:51N 45°37' E 013°47'0 0.0
2018-Jun-13 16:30N 45°37' E 013°47'0 0.0
2018-Jun-13 16:00N 45°37' E 013°47'0 0.0
2018-Jun-13 15:09N 45°37' E 013°47'0 0.0
2018-Jun-13 14:57N 45°37' E 013°47'0 0.0
2018-Jun-13 14:30N 45°37' E 013°47'0 0.0
2018-Jun-13 14:00N 45°37' E 013°47'0 0.0
2018-Jun-13 13:27N 45°37' E 013°47'0 0.0
2018-Jun-13 12:57N 45°37' E 013°47'0 0.0
2018-Jun-13 12:30N 45°37' E 013°47'0 0.0
2018-Jun-13 11:57N 45°37' E 013°47'0 0.0
2018-Jun-13 11:30N 45°37' E 013°47'0 0.0
2018-Jun-13 10:57N 45°37' E 013°47'0 0.0
2018-Jun-13 10:15N 45°37' E 013°47'0 0.0
2018-Jun-13 10:00N 45°37' E 013°47'0 0.0
2018-Jun-13 09:30N 45°37' E 013°47'0 0.0
2018-Jun-13 08:57N 45°37' E 013°47'0 0.0
2018-Jun-13 08:27N 45°37' E 013°47'0 0.0
2018-Jun-13 07:51N 45°37' E 013°47'0 0.0
2018-Jun-13 07:30N 45°37' E 013°47'0 0.0
2018-Jun-13 07:00N 45°37' E 013°47'0 0.0
2018-Jun-13 06:30N 45°37' E 013°47'0 0.0
2018-Jun-13 05:57N 45°37' E 013°47'0 0.0
2018-Jun-13 05:30N 45°37' E 013°47'0 0.0
2018-Jun-13 05:00N 45°37' E 013°47'0 0.0
2018-Jun-13 04:21N 45°37' E 013°47'0 0.0
2018-Jun-13 03:42N 45°37' E 013°47'0 0.0
2018-Jun-13 03:27N 45°37' E 013°47'0 0.0
2018-Jun-13 03:00N 45°37' E 013°47'0 0.0
2018-Jun-13 02:30N 45°37' E 013°47'0 0.0
2018-Jun-13 01:51N 45°37' E 013°47'0 0.0
2018-Jun-13 01:30N 45°37' E 013°47'0 0.0
2018-Jun-13 00:54N 45°37' E 013°47'0 0.0
2018-Jun-13 00:30N 45°37' E 013°47'0 0.0
2018-Jun-12 23:57N 45°37' E 013°47'0 0.0
2018-Jun-12 23:24N 45°37' E 013°47'0 0.0
2018-Jun-12 23:00N 45°37' E 013°47'0 0.0
2018-Jun-12 22:30N 45°37' E 013°47'0 0.0
2018-Jun-12 21:42N 45°37' E 013°47'  
Track history (hours):
 
Tides and Currents Weather Stations Pressure Air Temp Water Temp Dewpoint Dewpoint Depression Visibility Wind Speed Wind Dir Waves Ship Positions

Samraa_alkhaleej

Last reported at 2018-Jun-22 21:32 UTC. Time now 2018-Jun-23 18:02 UTC.
Position N 42°01' E 029°56'.

Length 248 m; draft 8 m.

Type: Tanker. MMSI: 642122021.

Date/timePositionNaut miles runAvg speedWind from/ knotsBaromVisibWave heightAir tempDewpointWater temp
2018-Jun-22 21:32N 42°01' E 029°56'113.2
2018-Jun-22 21:29N 42°00' E 029°55'613.0
2018-Jun-22 21:00N 41°55' E 029°51'612.8
2018-Jun-22 20:30N 41°49' E 029°46'812.0
2018-Jun-22 19:52N 41°43' E 029°41'513.7
2018-Jun-22 19:30N 41°39' E 029°37'713.7
2018-Jun-22 19:00N 41°33' E 029°32'813.0
2018-Jun-22 18:23N 41°27' E 029°25'1 2.3
2018-Jun-22 17:56N 41°26' E 029°24'9 6.2
2018-Jun-22 16:31N 41°19' E 029°17'3110.2
2018-Jun-22 13:29N 40°51' E 029°00'8 1.0
2018-Jun-22 05:05N 40°48' E 028°50'312.5
2018-Jun-22 04:49N 40°46' E 028°46'5 1.1
2018-Jun-22 00:29N 40°46' E 028°53'0 0.9
2018-Jun-21 23:59N 40°47' E 028°53'0 1.0
2018-Jun-21 23:30N 40°47' E 028°54'0 1.0
2018-Jun-21 23:00N 40°48' E 028°54'0 0.8
2018-Jun-21 22:30N 40°48' E 028°54'  
2018-Jun-18 13:12N 37°45' E 024°16'1011.9
2018-Jun-18 12:23N 37°36' E 024°10'  
2018-Jun-15 16:15N 44°32' E 013°38'311.9
2018-Jun-15 16:00N 44°35' E 013°35'611.9
2018-Jun-15 15:30N 44°40' E 013°30'612.7
2018-Jun-15 15:00N 44°45' E 013°26'612.6
2018-Jun-15 14:30N 44°50' E 013°21'612.4
2018-Jun-15 14:00N 44°56' E 013°16'612.1
2018-Jun-15 13:30N 45°01' E 013°11'510.9
2018-Jun-15 13:00N 45°05' E 013°07'611.0
2018-Jun-15 12:30N 45°10' E 013°04'713.7
2018-Jun-15 12:00N 45°17' E 013°01'712.8
2018-Jun-15 11:29N 45°23' E 013°03'713.9
2018-Jun-15 11:00N 45°28' E 013°09'713.6
2018-Jun-15 10:31N 45°33' E 013°17'713.3
2018-Jun-15 10:00N 45°36' E 013°25'713.1
2018-Jun-15 09:31N 45°38' E 013°34'612.5
2018-Jun-15 09:00N 45°37' E 013°43'3 5.4
2018-Jun-15 08:28N 45°37' E 013°47'0 0.0
2018-Jun-15 07:37N 45°37' E 013°47'0 0.0
2018-Jun-15 07:25N 45°37' E 013°47'0 0.0
2018-Jun-15 06:49N 45°37' E 013°47'0 0.0
2018-Jun-15 06:25N 45°37' E 013°47'0 0.0
2018-Jun-15 05:55N 45°37' E 013°47'0 0.0
2018-Jun-15 05:07N 45°37' E 013°47'0 0.0
2018-Jun-15 04:49N 45°37' E 013°47'0 0.0
2018-Jun-15 04:25N 45°37' E 013°47'0 0.0
2018-Jun-15 03:49N 45°37' E 013°47'0 0.0
2018-Jun-15 03:25N 45°37' E 013°47'0 0.0
2018-Jun-15 02:40N 45°37' E 013°47'0 0.0
2018-Jun-15 02:25N 45°37' E 013°47'0 0.0
2018-Jun-15 01:49N 45°37' E 013°47'0 0.0
2018-Jun-15 01:19N 45°37' E 013°47'0 0.0
2018-Jun-15 00:58N 45°37' E 013°47'0 0.0
2018-Jun-15 00:25N 45°37' E 013°47'0 0.0
2018-Jun-14 23:55N 45°37' E 013°47'0 0.0
2018-Jun-14 23:25N 45°37' E 013°47'0 0.0
2018-Jun-14 22:43N 45°37' E 013°47'0 0.0
2018-Jun-14 22:19N 45°37' E 013°47'0 0.0
2018-Jun-14 21:55N 45°37' E 013°47'0 0.0
2018-Jun-14 21:25N 45°37' E 013°47'0 0.0
2018-Jun-14 20:10N 45°37' E 013°47'0 0.0
2018-Jun-14 19:58N 45°37' E 013°47'0 0.0
2018-Jun-14 19:04N 45°37' E 013°47'0 0.0
2018-Jun-14 18:52N 45°37' E 013°47'0 0.0
2018-Jun-14 18:22N 45°37' E 013°47'0 0.0
2018-Jun-14 17:58N 45°37' E 013°47'0 0.0
2018-Jun-14 17:28N 45°37' E 013°47'0 0.0
2018-Jun-14 16:49N 45°37' E 013°47'0 0.0
2018-Jun-14 16:19N 45°37' E 013°47'0 0.0
2018-Jun-14 15:58N 45°37' E 013°47'0 0.0
2018-Jun-14 15:28N 45°37' E 013°47'0 0.0
2018-Jun-14 14:46N 45°37' E 013°47'0 0.0
2018-Jun-14 14:25N 45°37' E 013°47'0 0.0
2018-Jun-14 13:49N 45°37' E 013°47'0 0.0
2018-Jun-14 13:19N 45°37' E 013°47'0 0.0
2018-Jun-14 12:55N 45°37' E 013°47'0 0.0
2018-Jun-14 12:25N 45°37' E 013°47'0 0.0
2018-Jun-14 11:55N 45°37' E 013°47'0 0.0
2018-Jun-14 11:28N 45°37' E 013°47'0 0.0
2018-Jun-14 10:43N 45°37' E 013°47'0 0.0
2018-Jun-14 10:28N 45°37' E 013°47'0 0.0
2018-Jun-14 09:55N 45°37' E 013°47'0 0.0
2018-Jun-14 09:25N 45°37' E 013°47'0 0.0
2018-Jun-14 08:55N 45°37' E 013°47'0 0.0
2018-Jun-14 08:13N 45°37' E 013°47'0 0.0
2018-Jun-14 07:55N 45°37' E 013°47'0 0.0
2018-Jun-14 07:25N 45°37' E 013°47'0 0.0
2018-Jun-14 06:55N 45°37' E 013°47'0 0.0
2018-Jun-14 06:25N 45°37' E 013°47'0 0.0
2018-Jun-14 05:55N 45°37' E 013°47'0 0.0
2018-Jun-14 05:25N 45°37' E 013°47'0 0.0
2018-Jun-14 04:55N 45°37' E 013°47'0 0.0
2018-Jun-14 04:25N 45°37' E 013°47'0 0.0
2018-Jun-14 03:58N 45°37' E 013°47'0 0.0
2018-Jun-14 03:31N 45°37' E 013°47'0 0.0
2018-Jun-14 03:01N 45°37' E 013°47'0 0.0
2018-Jun-14 02:30N 45°37' E 013°47'0 0.0
2018-Jun-14 02:00N 45°37' E 013°47'0 0.0
2018-Jun-14 01:27N 45°37' E 013°47'0 0.0
2018-Jun-14 01:00N 45°37' E 013°47'0 0.0
2018-Jun-14 00:30N 45°37' E 013°47'0 0.0
2018-Jun-14 00:00N 45°37' E 013°47'0 0.0
2018-Jun-13 23:30N 45°37' E 013°47'0 0.0
2018-Jun-13 23:00N 45°37' E 013°47'0 0.0
2018-Jun-13 22:30N 45°37' E 013°47'0 0.0
2018-Jun-13 22:00N 45°37' E 013°47'0 0.0
2018-Jun-13 21:30N 45°37' E 013°47'0 0.0
2018-Jun-13 20:57N 45°37' E 013°47'0 0.0
2018-Jun-13 20:30N 45°37' E 013°47'0 0.0
2018-Jun-13 20:00N 45°37' E 013°47'0 0.0
2018-Jun-13 19:30N 45°37' E 013°47'0 0.0
2018-Jun-13 18:39N 45°37' E 013°47'0 0.0
2018-Jun-13 18:30N 45°37' E 013°47'0 0.0
2018-Jun-13 18:00N 45°37' E 013°47'0 0.0
2018-Jun-13 17:30N 45°37' E 013°47'0 0.0
2018-Jun-13 16:51N 45°37' E 013°47'0 0.0
2018-Jun-13 16:30N 45°37' E 013°47'0 0.0
2018-Jun-13 16:00N 45°37' E 013°47'0 0.0
2018-Jun-13 15:09N 45°37' E 013°47'0 0.0
2018-Jun-13 14:57N 45°37' E 013°47'0 0.0
2018-Jun-13 14:30N 45°37' E 013°47'0 0.0
2018-Jun-13 14:00N 45°37' E 013°47'0 0.0
2018-Jun-13 13:27N 45°37' E 013°47'0 0.0
2018-Jun-13 12:57N 45°37' E 013°47'0 0.0
2018-Jun-13 12:30N 45°37' E 013°47'0 0.0
2018-Jun-13 11:57N 45°37' E 013°47'0 0.0
2018-Jun-13 11:30N 45°37' E 013°47'0 0.0
2018-Jun-13 10:57N 45°37' E 013°47'0 0.0
2018-Jun-13 10:15N 45°37' E 013°47'0 0.0
2018-Jun-13 10:00N 45°37' E 013°47'0 0.0
2018-Jun-13 09:30N 45°37' E 013°47'0 0.0
2018-Jun-13 08:57N 45°37' E 013°47'0 0.0
2018-Jun-13 08:27N 45°37' E 013°47'0 0.0
2018-Jun-13 07:51N 45°37' E 013°47'0 0.0
2018-Jun-13 07:30N 45°37' E 013°47'0 0.0
2018-Jun-13 07:00N 45°37' E 013°47'0 0.0
2018-Jun-13 06:30N 45°37' E 013°47'0 0.0
2018-Jun-13 05:57N 45°37' E 013°47'0 0.0
2018-Jun-13 05:30N 45°37' E 013°47'0 0.0
2018-Jun-13 05:00N 45°37' E 013°47'0 0.0
2018-Jun-13 04:21N 45°37' E 013°47'0 0.0
2018-Jun-13 03:42N 45°37' E 013°47'0 0.0
2018-Jun-13 03:27N 45°37' E 013°47'0 0.0
2018-Jun-13 03:00N 45°37' E 013°47'0 0.0
2018-Jun-13 02:30N 45°37' E 013°47'0 0.0
2018-Jun-13 01:51N 45°37' E 013°47'0 0.0
2018-Jun-13 01:30N 45°37' E 013°47'0 0.0
2018-Jun-13 00:54N 45°37' E 013°47'0 0.0
2018-Jun-13 00:30N 45°37' E 013°47'0 0.0
2018-Jun-12 23:57N 45°37' E 013°47'0 0.0
2018-Jun-12 23:24N 45°37' E 013°47'0 0.0
2018-Jun-12 23:00N 45°37' E 013°47'0 0.0
2018-Jun-12 22:30N 45°37' E 013°47'0 0.0
2018-Jun-12 21:42N 45°37' E 013°47'  

Dump ship's entire track history